sensor_id;sensor_type;location;lat;lon;timestamp;temperature;humidity
9723;DHT22;4900;49.306;8.500;2023-12-22T00:01:54;8.20;81.46
9723;DHT22;4900;49.306;8.500;2023-12-22T00:04:20;8.18;81.51
9723;DHT22;4900;49.306;8.500;2023-12-22T00:06:45;8.14;81.22
9723;DHT22;4900;49.306;8.500;2023-12-22T00:09:15;8.06;80.89
9723;DHT22;4900;49.306;8.500;2023-12-22T00:11:41;7.99;80.83
9723;DHT22;4900;49.306;8.500;2023-12-22T00:14:07;7.90;80.75
9723;DHT22;4900;49.306;8.500;2023-12-22T00:16:33;7.83;80.95
9723;DHT22;4900;49.306;8.500;2023-12-22T00:18:59;7.82;81.25
9723;DHT22;4900;49.306;8.500;2023-12-22T00:21:25;7.83;81.25
9723;DHT22;4900;49.306;8.500;2023-12-22T00:23:53;7.82;81.45
9723;DHT22;4900;49.306;8.500;2023-12-22T00:26:18;7.81;81.60
9723;DHT22;4900;49.306;8.500;2023-12-22T00:28:45;7.79;81.92
9723;DHT22;4900;49.306;8.500;2023-12-22T00:31:10;7.81;82.07
9723;DHT22;4900;49.306;8.500;2023-12-22T00:33:38;7.82;82.12
9723;DHT22;4900;49.306;8.500;2023-12-22T00:36:04;7.82;82.15
9723;DHT22;4900;49.306;8.500;2023-12-22T00:38:30;7.83;82.23
9723;DHT22;4900;49.306;8.500;2023-12-22T00:41:00;7.82;82.30
9723;DHT22;4900;49.306;8.500;2023-12-22T00:43:27;7.83;82.30
9723;DHT22;4900;49.306;8.500;2023-12-22T00:45:54;7.81;82.43
9723;DHT22;4900;49.306;8.500;2023-12-22T00:48:21;7.79;82.40
9723;DHT22;4900;49.306;8.500;2023-12-22T00:50:46;7.82;82.46
9723;DHT22;4900;49.306;8.500;2023-12-22T00:53:15;7.82;82.37
9723;DHT22;4900;49.306;8.500;2023-12-22T00:55:40;7.79;82.40
9723;DHT22;4900;49.306;8.500;2023-12-22T00:58:06;7.79;82.29
9723;DHT22;4900;49.306;8.500;2023-12-22T01:00:31;7.77;82.36
9723;DHT22;4900;49.306;8.500;2023-12-22T01:03:01;7.74;82.39
9723;DHT22;4900;49.306;8.500;2023-12-22T01:05:29;7.63;82.35
9723;DHT22;4900;49.306;8.500;2023-12-22T01:08:00;7.66;82.43
9723;DHT22;4900;49.306;8.500;2023-12-22T01:10:26;7.68;82.39
9723;DHT22;4900;49.306;8.500;2023-12-22T01:12:51;7.66;82.33
9723;DHT22;4900;49.306;8.500;2023-12-22T01:15:17;7.69;82.34
9723;DHT22;4900;49.306;8.500;2023-12-22T01:17:43;7.66;82.29
9723;DHT22;4900;49.306;8.500;2023-12-22T01:20:11;7.65;82.26
9723;DHT22;4900;49.306;8.500;2023-12-22T01:22:39;7.66;82.16
9723;DHT22;4900;49.306;8.500;2023-12-22T01:25:05;7.72;82.16
9723;DHT22;4900;49.306;8.500;2023-12-22T01:27:31;7.59;82.35
9723;DHT22;4900;49.306;8.500;2023-12-22T01:29:57;7.62;82.28
9723;DHT22;4900;49.306;8.500;2023-12-22T01:32:22;7.59;82.41
9723;DHT22;4900;49.306;8.500;2023-12-22T01:34:48;7.58;82.35
9723;DHT22;4900;49.306;8.500;2023-12-22T01:37:13;7.51;82.49
9723;DHT22;4900;49.306;8.500;2023-12-22T01:39:39;7.51;82.32
9723;DHT22;4900;49.306;8.500;2023-12-22T01:42:05;7.41;82.52
9723;DHT22;4900;49.306;8.500;2023-12-22T01:44:37;7.45;82.37
9723;DHT22;4900;49.306;8.500;2023-12-22T01:47:03;7.47;82.12
9723;DHT22;4900;49.306;8.500;2023-12-22T01:49:29;7.43;82.04
9723;DHT22;4900;49.306;8.500;2023-12-22T01:51:55;7.37;82.06
9723;DHT22;4900;49.306;8.500;2023-12-22T01:54:21;7.38;81.88
9723;DHT22;4900;49.306;8.500;2023-12-22T01:56:46;7.28;81.90
9723;DHT22;4900;49.306;8.500;2023-12-22T01:59:12;7.31;82.08
9723;DHT22;4900;49.306;8.500;2023-12-22T02:01:38;7.22;82.37
9723;DHT22;4900;49.306;8.500;2023-12-22T02:04:04;7.20;82.79
9723;DHT22;4900;49.306;8.500;2023-12-22T02:06:31;7.28;82.31
9723;DHT22;4900;49.306;8.500;2023-12-22T02:08:58;7.40;81.61
9723;DHT22;4900;49.306;8.500;2023-12-22T02:11:23;7.41;81.38
9723;DHT22;4900;49.306;8.500;2023-12-22T02:13:50;7.51;80.55
9723;DHT22;4900;49.306;8.500;2023-12-22T02:16:52;7.65;80.17
9723;DHT22;4900;49.306;8.500;2023-12-22T02:19:43;7.81;78.73
9723;DHT22;4900;49.306;8.500;2023-12-22T02:22:11;7.93;78.12
9723;DHT22;4900;49.306;8.500;2023-12-22T02:24:40;8.06;77.78
9723;DHT22;4900;49.306;8.500;2023-12-22T02:30:06;8.18;76.62
9723;DHT22;4900;49.306;8.500;2023-12-22T02:32:38;8.28;76.61
9723;DHT22;4900;49.306;8.500;2023-12-22T02:35:09;8.37;76.75
9723;DHT22;4900;49.306;8.500;2023-12-22T02:37:38;8.41;76.79
9723;DHT22;4900;49.306;8.500;2023-12-22T02:40:05;8.48;76.77
9723;DHT22;4900;49.306;8.500;2023-12-22T02:42:34;8.51;76.96
9723;DHT22;4900;49.306;8.500;2023-12-22T02:45:03;8.56;76.96
9723;DHT22;4900;49.306;8.500;2023-12-22T02:47:29;8.58;77.05
9723;DHT22;4900;49.306;8.500;2023-12-22T02:49:54;8.59;76.80
9723;DHT22;4900;49.306;8.500;2023-12-22T02:52:20;8.58;76.85
9723;DHT22;4900;49.306;8.500;2023-12-22T02:54:46;8.66;76.68
9723;DHT22;4900;49.306;8.500;2023-12-22T02:57:12;8.68;76.75
9723;DHT22;4900;49.306;8.500;2023-12-22T02:59:38;8.66;76.79
9723;DHT22;4900;49.306;8.500;2023-12-22T03:02:05;8.63;76.73
9723;DHT22;4900;49.306;8.500;2023-12-22T03:04:31;8.71;76.41
9723;DHT22;4900;49.306;8.500;2023-12-22T03:06:57;8.68;76.20
9723;DHT22;4900;49.306;8.500;2023-12-22T03:09:23;8.69;76.35
9723;DHT22;4900;49.306;8.500;2023-12-22T03:11:49;8.76;76.20
9723;DHT22;4900;49.306;8.500;2023-12-22T03:14:19;8.79;75.90
9723;DHT22;4900;49.306;8.500;2023-12-22T03:16:45;8.75;76.43
9723;DHT22;4900;49.306;8.500;2023-12-22T03:19:10;8.77;76.11
9723;DHT22;4900;49.306;8.500;2023-12-22T03:21:36;8.77;75.89
9723;DHT22;4900;49.306;8.500;2023-12-22T03:24:08;8.79;75.56
9723;DHT22;4900;49.306;8.500;2023-12-22T03:26:33;8.92;75.23
9723;DHT22;4900;49.306;8.500;2023-12-22T03:29:00;8.85;75.27
9723;DHT22;4900;49.306;8.500;2023-12-22T03:31:26;8.85;75.21
9723;DHT22;4900;49.306;8.500;2023-12-22T03:33:51;8.92;74.61
9723;DHT22;4900;49.306;8.500;2023-12-22T03:36:19;8.92;74.22
9723;DHT22;4900;49.306;8.500;2023-12-22T03:38:44;8.83;74.65
9723;DHT22;4900;49.306;8.500;2023-12-22T03:41:10;8.93;73.84
9723;DHT22;4900;49.306;8.500;2023-12-22T03:43:36;8.99;73.69
9723;DHT22;4900;49.306;8.500;2023-12-22T03:46:02;9.06;73.71
9723;DHT22;4900;49.306;8.500;2023-12-22T03:48:28;9.03;73.95
9723;DHT22;4900;49.306;8.500;2023-12-22T03:51:01;9.03;73.78
9723;DHT22;4900;49.306;8.500;2023-12-22T03:53:26;8.99;74.44
9723;DHT22;4900;49.306;8.500;2023-12-22T03:55:55;8.97;74.25
9723;DHT22;4900;49.306;8.500;2023-12-22T03:58:20;8.93;74.47
9723;DHT22;4900;49.306;8.500;2023-12-22T04:00:47;8.97;74.70
9723;DHT22;4900;49.306;8.500;2023-12-22T04:03:14;8.99;74.61
9723;DHT22;4900;49.306;8.500;2023-12-22T04:05:40;8.96;74.95
9723;DHT22;4900;49.306;8.500;2023-12-22T04:08:06;8.96;75.12
9723;DHT22;4900;49.306;8.500;2023-12-22T04:10:32;8.96;75.55
9723;DHT22;4900;49.306;8.500;2023-12-22T04:12:57;9.00;75.58
9723;DHT22;4900;49.306;8.500;2023-12-22T04:15:24;8.92;75.88
9723;DHT22;4900;49.306;8.500;2023-12-22T04:17:50;8.89;76.24
9723;DHT22;4900;49.306;8.500;2023-12-22T04:20:16;8.89;76.11
9723;DHT22;4900;49.306;8.500;2023-12-22T04:22:42;8.89;76.24
9723;DHT22;4900;49.306;8.500;2023-12-22T04:25:09;8.80;76.49
9723;DHT22;4900;49.306;8.500;2023-12-22T04:27:35;8.66;76.78
9723;DHT22;4900;49.306;8.500;2023-12-22T04:30:07;8.72;76.39
9723;DHT22;4900;49.306;8.500;2023-12-22T04:32:33;8.76;75.94
9723;DHT22;4900;49.306;8.500;2023-12-22T04:34:58;8.82;75.86
9723;DHT22;4900;49.306;8.500;2023-12-22T04:37:24;8.77;75.85
9723;DHT22;4900;49.306;8.500;2023-12-22T04:39:55;8.79;75.48
9723;DHT22;4900;49.306;8.500;2023-12-22T04:42:21;8.77;75.75
9723;DHT22;4900;49.306;8.500;2023-12-22T04:44:47;8.77;76.00
9723;DHT22;4900;49.306;8.500;2023-12-22T04:47:14;8.86;75.62
9723;DHT22;4900;49.306;8.500;2023-12-22T04:49:40;8.83;75.55
9723;DHT22;4900;49.306;8.500;2023-12-22T04:52:06;8.85;75.06
9723;DHT22;4900;49.306;8.500;2023-12-22T04:54:35;8.95;74.62
9723;DHT22;4900;49.306;8.500;2023-12-22T04:57:02;8.97;74.83
9723;DHT22;4900;49.306;8.500;2023-12-22T04:59:29;8.89;74.96
9723;DHT22;4900;49.306;8.500;2023-12-22T05:01:54;8.99;74.63
9723;DHT22;4900;49.306;8.500;2023-12-22T05:04:19;8.93;74.97
9723;DHT22;4900;49.306;8.500;2023-12-22T05:06:45;8.97;74.89
9723;DHT22;4900;49.306;8.500;2023-12-22T05:09:13;8.99;74.94
9723;DHT22;4900;49.306;8.500;2023-12-22T05:12:04;8.96;75.35
9723;DHT22;4900;49.306;8.500;2023-12-22T05:14:30;8.95;75.40
9723;DHT22;4900;49.306;8.500;2023-12-22T05:16:56;8.90;75.64
9723;DHT22;4900;49.306;8.500;2023-12-22T05:19:22;8.92;76.07
9723;DHT22;4900;49.306;8.500;2023-12-22T05:21:49;8.89;76.39
9723;DHT22;4900;49.306;8.500;2023-12-22T05:24:15;8.93;76.36
9723;DHT22;4900;49.306;8.500;2023-12-22T05:26:40;8.89;76.35
9723;DHT22;4900;49.306;8.500;2023-12-22T05:29:06;8.85;76.56
9723;DHT22;4900;49.306;8.500;2023-12-22T05:31:33;8.83;76.67
9723;DHT22;4900;49.306;8.500;2023-12-22T05:34:02;8.86;76.46
9723;DHT22;4900;49.306;8.500;2023-12-22T05:36:30;8.79;76.76
9723;DHT22;4900;49.306;8.500;2023-12-22T05:38:55;8.73;76.86
9723;DHT22;4900;49.306;8.500;2023-12-22T05:41:21;8.69;76.88
9723;DHT22;4900;49.306;8.500;2023-12-22T05:43:46;8.80;76.47
9723;DHT22;4900;49.306;8.500;2023-12-22T05:46:12;8.69;76.70
9723;DHT22;4900;49.306;8.500;2023-12-22T05:48:37;8.72;76.33
9723;DHT22;4900;49.306;8.500;2023-12-22T05:51:04;8.79;75.97
9723;DHT22;4900;49.306;8.500;2023-12-22T05:53:34;8.83;75.68
9723;DHT22;4900;49.306;8.500;2023-12-22T05:56:03;8.92;75.21
9723;DHT22;4900;49.306;8.500;2023-12-22T05:58:29;8.88;75.13
9723;DHT22;4900;49.306;8.500;2023-12-22T06:00:54;8.89;75.02
9723;DHT22;4900;49.306;8.500;2023-12-22T06:03:20;9.00;74.66
9723;DHT22;4900;49.306;8.500;2023-12-22T06:05:46;8.97;74.73
9723;DHT22;4900;49.306;8.500;2023-12-22T06:08:12;9.00;74.73
9723;DHT22;4900;49.306;8.500;2023-12-22T06:10:38;9.01;74.64
9723;DHT22;4900;49.306;8.500;2023-12-22T06:13:04;9.03;74.85
9723;DHT22;4900;49.306;8.500;2023-12-22T06:15:32;9.03;74.81
9723;DHT22;4900;49.306;8.500;2023-12-22T06:17:57;9.07;74.92
9723;DHT22;4900;49.306;8.500;2023-12-22T06:20:23;9.07;74.70
9723;DHT22;4900;49.306;8.500;2023-12-22T06:22:49;9.06;74.75
9723;DHT22;4900;49.306;8.500;2023-12-22T06:25:15;9.10;74.32
9723;DHT22;4900;49.306;8.500;2023-12-22T06:27:40;9.13;74.22
9723;DHT22;4900;49.306;8.500;2023-12-22T06:30:06;9.14;74.02
9723;DHT22;4900;49.306;8.500;2023-12-22T06:32:32;9.18;73.83
9723;DHT22;4900;49.306;8.500;2023-12-22T06:34:59;9.17;73.89
9723;DHT22;4900;49.306;8.500;2023-12-22T06:37:25;9.08;74.04
9723;DHT22;4900;49.306;8.500;2023-12-22T06:39:52;9.23;73.23
9723;DHT22;4900;49.306;8.500;2023-12-22T06:42:18;9.11;73.38
9723;DHT22;4900;49.306;8.500;2023-12-22T06:44:45;9.20;73.18
9723;DHT22;4900;49.306;8.500;2023-12-22T06:47:11;9.21;72.86
9723;DHT22;4900;49.306;8.500;2023-12-22T06:49:36;9.13;72.66
9723;DHT22;4900;49.306;8.500;2023-12-22T06:52:02;9.11;72.30
9723;DHT22;4900;49.306;8.500;2023-12-22T06:54:27;9.13;72.20
9723;DHT22;4900;49.306;8.500;2023-12-22T06:57:02;9.14;71.69
9723;DHT22;4900;49.306;8.500;2023-12-22T06:59:28;9.24;70.79
9723;DHT22;4900;49.306;8.500;2023-12-22T07:01:53;9.25;70.75
9723;DHT22;4900;49.306;8.500;2023-12-22T07:04:59;9.21;71.15
9723;DHT22;4900;49.306;8.500;2023-12-22T07:07:35;9.17;71.50
9723;DHT22;4900;49.306;8.500;2023-12-22T07:10:04;9.14;71.04
9723;DHT22;4900;49.306;8.500;2023-12-22T07:12:29;9.14;70.85
9723;DHT22;4900;49.306;8.500;2023-12-22T07:14:55;9.20;71.22
9723;DHT22;4900;49.306;8.500;2023-12-22T07:17:20;9.23;71.11
9723;DHT22;4900;49.306;8.500;2023-12-22T07:19:46;9.27;70.75
9723;DHT22;4900;49.306;8.500;2023-12-22T07:22:13;9.25;71.24
9723;DHT22;4900;49.306;8.500;2023-12-22T07:24:40;9.21;71.51
9723;DHT22;4900;49.306;8.500;2023-12-22T07:27:05;9.28;71.57
9723;DHT22;4900;49.306;8.500;2023-12-22T07:29:31;9.34;71.60
9723;DHT22;4900;49.306;8.500;2023-12-22T07:31:59;9.25;72.21
9723;DHT22;4900;49.306;8.500;2023-12-22T07:34:26;9.32;71.90
9723;DHT22;4900;49.306;8.500;2023-12-22T07:36:52;9.30;72.25
9723;DHT22;4900;49.306;8.500;2023-12-22T07:39:20;9.32;72.39
9723;DHT22;4900;49.306;8.500;2023-12-22T07:41:47;9.38;72.50
9723;DHT22;4900;49.306;8.500;2023-12-22T07:44:14;9.32;73.35
9723;DHT22;4900;49.306;8.500;2023-12-22T07:46:40;9.27;73.97
9723;DHT22;4900;49.306;8.500;2023-12-22T07:49:07;9.32;74.27
9723;DHT22;4900;49.306;8.500;2023-12-22T07:51:32;9.27;74.49
9723;DHT22;4900;49.306;8.500;2023-12-22T07:53:58;9.32;74.53
9723;DHT22;4900;49.306;8.500;2023-12-22T07:56:24;9.28;74.73
9723;DHT22;4900;49.306;8.500;2023-12-22T07:58:49;9.25;74.97
9723;DHT22;4900;49.306;8.500;2023-12-22T08:01:15;9.28;75.06
9723;DHT22;4900;49.306;8.500;2023-12-22T08:03:40;9.28;75.23
9723;DHT22;4900;49.306;8.500;2023-12-22T08:06:06;9.25;75.24
9723;DHT22;4900;49.306;8.500;2023-12-22T08:08:33;9.21;75.62
9723;DHT22;4900;49.306;8.500;2023-12-22T08:11:01;9.32;75.34
9723;DHT22;4900;49.306;8.500;2023-12-22T08:13:27;9.35;75.45
9723;DHT22;4900;49.306;8.500;2023-12-22T08:15:53;9.36;75.42
9723;DHT22;4900;49.306;8.500;2023-12-22T08:18:18;9.34;75.66
9723;DHT22;4900;49.306;8.500;2023-12-22T08:20:44;9.30;75.90
9723;DHT22;4900;49.306;8.500;2023-12-22T08:23:11;9.36;75.91
9723;DHT22;4900;49.306;8.500;2023-12-22T08:25:44;9.36;75.95
9723;DHT22;4900;49.306;8.500;2023-12-22T08:28:11;9.42;75.82
9723;DHT22;4900;49.306;8.500;2023-12-22T08:30:40;9.44;75.83
9723;DHT22;4900;49.306;8.500;2023-12-22T08:33:07;9.45;75.98
9723;DHT22;4900;49.306;8.500;2023-12-22T08:35:33;9.46;76.11
9723;DHT22;4900;49.306;8.500;2023-12-22T08:38:00;9.41;76.16
9723;DHT22;4900;49.306;8.500;2023-12-22T08:40:25;9.51;75.97
9723;DHT22;4900;49.306;8.500;2023-12-22T08:42:57;9.55;75.35
9723;DHT22;4900;49.306;8.500;2023-12-22T08:45:26;9.49;75.20
9723;DHT22;4900;49.306;8.500;2023-12-22T08:47:55;9.53;74.85
9723;DHT22;4900;49.306;8.500;2023-12-22T08:50:21;9.56;74.40
9723;DHT22;4900;49.306;8.500;2023-12-22T08:52:46;9.63;74.27
9723;DHT22;4900;49.306;8.500;2023-12-22T08:55:12;9.69;73.96
9723;DHT22;4900;49.306;8.500;2023-12-22T08:57:39;9.70;73.82
9723;DHT22;4900;49.306;8.500;2023-12-22T09:00:05;9.66;73.91
9723;DHT22;4900;49.306;8.500;2023-12-22T09:02:31;9.70;73.49
9723;DHT22;4900;49.306;8.500;2023-12-22T09:04:56;9.79;73.14
9723;DHT22;4900;49.306;8.500;2023-12-22T09:07:22;9.83;72.85
9723;DHT22;4900;49.306;8.500;2023-12-22T09:09:48;9.85;73.09
9723;DHT22;4900;49.306;8.500;2023-12-22T09:12:13;9.87;72.93
9723;DHT22;4900;49.306;8.500;2023-12-22T09:14:39;9.97;72.74
9723;DHT22;4900;49.306;8.500;2023-12-22T09:17:04;9.97;72.82
9723;DHT22;4900;49.306;8.500;2023-12-22T09:19:33;10.01;72.27
9723;DHT22;4900;49.306;8.500;2023-12-22T09:21:59;10.01;72.57
9723;DHT22;4900;49.306;8.500;2023-12-22T09:24:25;10.07;72.25
9723;DHT22;4900;49.306;8.500;2023-12-22T09:26:52;10.07;72.19
9723;DHT22;4900;49.306;8.500;2023-12-22T09:29:18;10.13;72.04
9723;DHT22;4900;49.306;8.500;2023-12-22T09:31:44;10.11;72.05
9723;DHT22;4900;49.306;8.500;2023-12-22T09:34:09;10.16;71.94
9723;DHT22;4900;49.306;8.500;2023-12-22T09:36:35;10.22;71.40
9723;DHT22;4900;49.306;8.500;2023-12-22T09:39:00;10.36;71.33
9723;DHT22;4900;49.306;8.500;2023-12-22T09:41:26;10.34;71.65
9723;DHT22;4900;49.306;8.500;2023-12-22T09:43:51;10.39;71.65
9723;DHT22;4900;49.306;8.500;2023-12-22T09:46:21;10.48;71.21
9723;DHT22;4900;49.306;8.500;2023-12-22T09:48:48;10.38;71.68
9723;DHT22;4900;49.306;8.500;2023-12-22T09:51:14;10.44;71.75
9723;DHT22;4900;49.306;8.500;2023-12-22T09:53:41;10.44;71.52
9723;DHT22;4900;49.306;8.500;2023-12-22T09:56:08;10.50;71.33
9723;DHT22;4900;49.306;8.500;2023-12-22T09:58:34;10.45;71.42
9723;DHT22;4900;49.306;8.500;2023-12-22T10:01:02;10.48;71.63
9723;DHT22;4900;49.306;8.500;2023-12-22T10:03:33;10.45;71.70
9723;DHT22;4900;49.306;8.500;2023-12-22T10:05:59;10.46;71.55
9723;DHT22;4900;49.306;8.500;2023-12-22T10:08:26;10.46;71.49
9723;DHT22;4900;49.306;8.500;2023-12-22T10:10:55;10.42;71.68
9723;DHT22;4900;49.306;8.500;2023-12-22T10:13:21;10.42;71.79
9723;DHT22;4900;49.306;8.500;2023-12-22T10:15:47;10.41;72.02
9723;DHT22;4900;49.306;8.500;2023-12-22T10:18:13;10.41;72.20
9723;DHT22;4900;49.306;8.500;2023-12-22T10:20:39;10.36;72.10
9723;DHT22;4900;49.306;8.500;2023-12-22T10:23:05;10.36;72.40
9723;DHT22;4900;49.306;8.500;2023-12-22T10:25:31;10.44;72.06
9723;DHT22;4900;49.306;8.500;2023-12-22T10:27:58;10.45;72.02
9723;DHT22;4900;49.306;8.500;2023-12-22T10:30:24;10.45;72.35
9723;DHT22;4900;49.306;8.500;2023-12-22T10:32:51;10.50;72.30
9723;DHT22;4900;49.306;8.500;2023-12-22T10:35:21;10.46;72.33
9723;DHT22;4900;49.306;8.500;2023-12-22T10:37:47;10.50;72.39
9723;DHT22;4900;49.306;8.500;2023-12-22T10:40:14;10.55;72.35
9723;DHT22;4900;49.306;8.500;2023-12-22T10:42:40;10.56;72.49
9723;DHT22;4900;49.306;8.500;2023-12-22T10:45:07;10.55;72.57
9723;DHT22;4900;49.306;8.500;2023-12-22T10:47:32;10.53;72.70
9723;DHT22;4900;49.306;8.500;2023-12-22T10:50:02;10.62;72.74
9723;DHT22;4900;49.306;8.500;2023-12-22T10:52:29;10.59;72.80
9723;DHT22;4900;49.306;8.500;2023-12-22T10:54:57;10.61;72.88
9723;DHT22;4900;49.306;8.500;2023-12-22T10:57:24;10.63;73.02
9723;DHT22;4900;49.306;8.500;2023-12-22T10:59:52;10.68;72.85
9723;DHT22;4900;49.306;8.500;2023-12-22T11:02:22;10.66;73.14
9723;DHT22;4900;49.306;8.500;2023-12-22T11:05:05;10.65;73.14
9723;DHT22;4900;49.306;8.500;2023-12-22T11:07:33;10.69;73.02
9723;DHT22;4900;49.306;8.500;2023-12-22T11:10:07;10.66;73.30
9723;DHT22;4900;49.306;8.500;2023-12-22T11:12:36;10.65;73.49
9723;DHT22;4900;49.306;8.500;2023-12-22T11:15:04;10.59;73.80
9723;DHT22;4900;49.306;8.500;2023-12-22T11:17:34;10.50;74.21
9723;DHT22;4900;49.306;8.500;2023-12-22T11:20:02;10.50;74.86
9723;DHT22;4900;49.306;8.500;2023-12-22T11:22:28;10.55;75.24
9723;DHT22;4900;49.306;8.500;2023-12-22T11:25:01;10.49;75.96
9723;DHT22;4900;49.306;8.500;2023-12-22T11:27:27;10.35;76.99
9723;DHT22;4900;49.306;8.500;2023-12-22T11:30:12;10.38;77.36
9723;DHT22;4900;49.306;8.500;2023-12-22T11:33:05;10.31;77.79
9723;DHT22;4900;49.306;8.500;2023-12-22T11:35:51;10.28;78.17
9723;DHT22;4900;49.306;8.500;2023-12-22T11:38:20;10.25;78.37
9723;DHT22;4900;49.306;8.500;2023-12-22T11:40:46;10.25;78.56
9723;DHT22;4900;49.306;8.500;2023-12-22T11:43:13;10.29;78.50
9723;DHT22;4900;49.306;8.500;2023-12-22T11:45:41;10.28;78.58
9723;DHT22;4900;49.306;8.500;2023-12-22T11:48:08;10.29;78.65
9723;DHT22;4900;49.306;8.500;2023-12-22T11:50:37;10.27;78.79
9723;DHT22;4900;49.306;8.500;2023-12-22T11:53:29;10.32;78.85
9723;DHT22;4900;49.306;8.500;2023-12-22T11:56:04;10.31;79.01
9723;DHT22;4900;49.306;8.500;2023-12-22T11:58:41;10.34;78.95
9723;DHT22;4900;49.306;8.500;2023-12-22T12:01:12;10.27;79.30
9723;DHT22;4900;49.306;8.500;2023-12-22T12:09:06;10.25;79.60
9723;DHT22;4900;49.306;8.500;2023-12-22T12:14:32;10.13;80.29
9723;DHT22;4900;49.306;8.500;2023-12-22T12:17:06;10.13;80.36
9723;DHT22;4900;49.306;8.500;2023-12-22T12:19:39;10.20;80.26
9723;DHT22;4900;49.306;8.500;2023-12-22T12:22:15;10.17;80.41
9723;DHT22;4900;49.306;8.500;2023-12-22T12:24:41;10.25;80.33
9723;DHT22;4900;49.306;8.500;2023-12-22T12:27:08;10.21;80.47
9723;DHT22;4900;49.306;8.500;2023-12-22T12:29:34;10.29;80.28
9723;DHT22;4900;49.306;8.500;2023-12-22T12:32:04;10.22;80.61
9723;DHT22;4900;49.306;8.500;2023-12-22T12:34:30;10.20;80.71
9723;DHT22;4900;49.306;8.500;2023-12-22T12:36:56;10.17;80.94
9723;DHT22;4900;49.306;8.500;2023-12-22T12:39:30;10.21;81.07
9723;DHT22;4900;49.306;8.500;2023-12-22T12:41:59;10.17;81.29
9723;DHT22;4900;49.306;8.500;2023-12-22T12:44:26;10.21;81.22
9723;DHT22;4900;49.306;8.500;2023-12-22T12:46:53;10.18;81.51
9723;DHT22;4900;49.306;8.500;2023-12-22T12:49:23;10.16;81.82
9723;DHT22;4900;49.306;8.500;2023-12-22T12:51:53;10.21;81.70
9723;DHT22;4900;49.306;8.500;2023-12-22T12:54:19;10.18;81.86
9723;DHT22;4900;49.306;8.500;2023-12-22T12:56:46;10.11;82.35
9723;DHT22;4900;49.306;8.500;2023-12-22T12:59:16;10.21;81.99
9723;DHT22;4900;49.306;8.500;2023-12-22T13:01:46;10.20;82.27
9723;DHT22;4900;49.306;8.500;2023-12-22T13:04:15;10.10;82.76
9723;DHT22;4900;49.306;8.500;2023-12-22T13:09:14;10.28;82.29
9723;DHT22;4900;49.306;8.500;2023-12-22T13:11:48;10.27;82.41
9723;DHT22;4900;49.306;8.500;2023-12-22T13:14:24;10.21;82.60
9723;DHT22;4900;49.306;8.500;2023-12-22T13:17:02;10.24;82.69
9723;DHT22;4900;49.306;8.500;2023-12-22T13:19:31;10.28;82.49
9723;DHT22;4900;49.306;8.500;2023-12-22T13:21:57;10.36;82.24
9723;DHT22;4900;49.306;8.500;2023-12-22T13:24:23;10.39;82.26
9723;DHT22;4900;49.306;8.500;2023-12-22T13:27:01;10.42;82.27
9723;DHT22;4900;49.306;8.500;2023-12-22T13:29:30;10.48;81.95
9723;DHT22;4900;49.306;8.500;2023-12-22T13:31:58;10.59;81.74
9723;DHT22;4900;49.306;8.500;2023-12-22T13:34:23;10.63;81.50
9723;DHT22;4900;49.306;8.500;2023-12-22T13:36:50;10.68;81.15
9723;DHT22;4900;49.306;8.500;2023-12-22T13:39:18;10.70;81.07
9723;DHT22;4900;49.306;8.500;2023-12-22T13:41:44;10.75;80.80
9723;DHT22;4900;49.306;8.500;2023-12-22T13:44:17;10.77;80.61
9723;DHT22;4900;49.306;8.500;2023-12-22T13:46:45;10.79;80.25
9723;DHT22;4900;49.306;8.500;2023-12-22T13:49:12;10.79;80.27
9723;DHT22;4900;49.306;8.500;2023-12-22T13:51:41;10.89;79.71
9723;DHT22;4900;49.306;8.500;2023-12-22T13:54:16;10.87;79.53
9723;DHT22;4900;49.306;8.500;2023-12-22T13:56:44;10.94;79.38
9723;DHT22;4900;49.306;8.500;2023-12-22T13:59:11;10.98;79.07
9723;DHT22;4900;49.306;8.500;2023-12-22T14:01:37;10.96;79.05
9723;DHT22;4900;49.306;8.500;2023-12-22T14:04:04;11.01;78.29
9723;DHT22;4900;49.306;8.500;2023-12-22T14:06:31;11.06;78.17
9723;DHT22;4900;49.306;8.500;2023-12-22T14:08:58;11.10;78.12
9723;DHT22;4900;49.306;8.500;2023-12-22T14:11:25;11.18;77.88
9723;DHT22;4900;49.306;8.500;2023-12-22T14:13:51;11.25;77.61
9723;DHT22;4900;49.306;8.500;2023-12-22T14:16:19;11.18;77.58
9723;DHT22;4900;49.306;8.500;2023-12-22T14:18:44;11.18;77.58
9723;DHT22;4900;49.306;8.500;2023-12-22T14:21:11;11.25;77.41
9723;DHT22;4900;49.306;8.500;2023-12-22T14:23:38;11.21;77.50
9723;DHT22;4900;49.306;8.500;2023-12-22T14:26:04;11.21;77.47
9723;DHT22;4900;49.306;8.500;2023-12-22T14:28:31;11.24;77.38
9723;DHT22;4900;49.306;8.500;2023-12-22T14:30:57;11.22;77.50
9723;DHT22;4900;49.306;8.500;2023-12-22T14:33:24;11.25;77.27
9723;DHT22;4900;49.306;8.500;2023-12-22T14:35:49;11.24;77.42
9723;DHT22;4900;49.306;8.500;2023-12-22T14:38:15;11.28;77.32
9723;DHT22;4900;49.306;8.500;2023-12-22T14:40:40;11.14;78.18
9723;DHT22;4900;49.306;8.500;2023-12-22T14:43:06;11.24;78.00
9723;DHT22;4900;49.306;8.500;2023-12-22T14:45:32;11.22;78.16
9723;DHT22;4900;49.306;8.500;2023-12-22T14:47:59;11.25;78.11
9723;DHT22;4900;49.306;8.500;2023-12-22T14:50:24;11.31;78.09
9723;DHT22;4900;49.306;8.500;2023-12-22T14:52:50;11.25;78.21
9723;DHT22;4900;49.306;8.500;2023-12-22T14:55:21;11.26;78.35
9723;DHT22;4900;49.306;8.500;2023-12-22T14:57:46;11.24;78.17
9723;DHT22;4900;49.306;8.500;2023-12-22T15:00:15;11.15;78.34
9723;DHT22;4900;49.306;8.500;2023-12-22T15:02:41;11.11;78.67
9723;DHT22;4900;49.306;8.500;2023-12-22T15:05:07;11.17;78.53
9723;DHT22;4900;49.306;8.500;2023-12-22T15:07:33;11.07;78.94
9723;DHT22;4900;49.306;8.500;2023-12-22T15:10:00;11.06;79.25
9723;DHT22;4900;49.306;8.500;2023-12-22T15:12:25;10.98;79.65
9723;DHT22;4900;49.306;8.500;2023-12-22T15:14:52;11.04;79.65
9723;DHT22;4900;49.306;8.500;2023-12-22T15:17:17;11.00;79.90
9723;DHT22;4900;49.306;8.500;2023-12-22T15:19:48;10.90;80.30
9723;DHT22;4900;49.306;8.500;2023-12-22T15:22:14;10.98;79.95
9723;DHT22;4900;49.306;8.500;2023-12-22T15:24:42;10.90;80.07
9723;DHT22;4900;49.306;8.500;2023-12-22T15:27:11;10.89;80.10
9723;DHT22;4900;49.306;8.500;2023-12-22T15:29:37;10.84;80.12
9723;DHT22;4900;49.306;8.500;2023-12-22T15:32:05;10.90;79.93
9723;DHT22;4900;49.306;8.500;2023-12-22T15:34:31;10.91;79.67
9723;DHT22;4900;49.306;8.500;2023-12-22T15:36:57;10.91;79.53
9723;DHT22;4900;49.306;8.500;2023-12-22T15:39:23;10.89;79.29
9723;DHT22;4900;49.306;8.500;2023-12-22T15:41:48;10.94;78.93
9723;DHT22;4900;49.306;8.500;2023-12-22T15:44:14;10.96;78.72
9723;DHT22;4900;49.306;8.500;2023-12-22T15:46:40;11.01;78.38
9723;DHT22;4900;49.306;8.500;2023-12-22T15:49:05;10.91;78.64
9723;DHT22;4900;49.306;8.500;2023-12-22T15:51:31;10.96;78.36
9723;DHT22;4900;49.306;8.500;2023-12-22T15:53:58;10.94;78.19
9723;DHT22;4900;49.306;8.500;2023-12-22T15:56:23;10.98;78.08
9723;DHT22;4900;49.306;8.500;2023-12-22T15:58:49;11.03;77.73
9723;DHT22;4900;49.306;8.500;2023-12-22T16:01:14;11.00;77.76
9723;DHT22;4900;49.306;8.500;2023-12-22T16:03:41;11.01;77.65
9723;DHT22;4900;49.306;8.500;2023-12-22T16:06:07;11.03;77.68
9723;DHT22;4900;49.306;8.500;2023-12-22T16:08:34;11.03;77.58
9723;DHT22;4900;49.306;8.500;2023-12-22T16:11:04;11.04;77.40
9723;DHT22;4900;49.306;8.500;2023-12-22T16:13:30;11.11;77.27
9723;DHT22;4900;49.306;8.500;2023-12-22T16:15:59;11.14;77.14
9723;DHT22;4900;49.306;8.500;2023-12-22T16:18:25;11.12;77.05
9723;DHT22;4900;49.306;8.500;2023-12-22T16:20:54;11.17;76.90
9723;DHT22;4900;49.306;8.500;2023-12-22T16:23:20;11.18;76.93
9723;DHT22;4900;49.306;8.500;2023-12-22T16:25:51;11.17;76.81
9723;DHT22;4900;49.306;8.500;2023-12-22T16:28:19;11.24;76.66